White Bluff, TN (37187)

12:54 AM CST on February 07, 2016 (GMT -0600)
Chapel in the Woods | | Change Station
CLOSE
Current Station
Personal Weather Station
Location: White Bluff, TN
Elevation: 823 ft
Nearby Weather Stations

Elev 823 ft 36.11 °N, 87.21 °W | Updated 4 minutes ago

Clear
Clear
35.4 °F
Feels Like 35 °F
N
0.0
Wind Variable Wind from WSW
Gusts 0.0 mph

Today
High -- | Low -- °F
--% Chance of Precip.
Yesterday
High -- | Low -- °F
Precip. -- in
Pressure 30.27 in
Visibility 10.0 miles
Clouds Clear
Windchill 35 °F
Dew Point 21 °F
Humidity 56%
Rainfall 0.00 in
Snow Depth Not available.
6:44 AM 5:21 PM
Waning Crescent, 2% visible
METAR KBNA 070553Z 00000KT 10SM CLR 01/M04 A3027 RMK AO2 SLP250 T00111044 10089 20006 401221028 58008
Pressure 30.27 in
Visibility 10.0 miles
Clouds Clear
Windchill 35 °F
Dew Point 21 °F
Humidity 56%
Rainfall 0.00 in
Snow Depth Not available.
6:44 AM 5:21 PM
Waning Crescent, 2% visible
METAR KBNA 070553Z 00000KT 10SM CLR 01/M04 A3027 RMK AO2 SLP250 T00111044 10089 20006 401221028 58008

10-Day Weather Forecast

Almanac

Astronomy

Feb. 07, 2016 Rise Set
Actual Time
Civil Twilight
Nautical Twilight
Astronomical Twilight
Moon
Length of Visible Light
Length of Day
Tomorrow will be .
, % of the Moon is Illuminated

Today's Extremes

State Highs State Lows

Community

WunderPhotos

Upload Photos

1,891,174 photos uploaded!

WunderBlog® & News

Nearby

Air Quality

  Air Quality AQ Index Pollutant
Not available.

Snow Depth

Station Depth Elevation

Earthquake Activity

City Distance Mag. Time & Date
Minimum magnitude displayed is 2.5.

Coastal Water Temperatures

Place Temperature

Stations

Nearby Weather Stations

Station Location Temp. Windchill Dew Point Humidity Wind Precip. Elev Updated Type
                   

Watches & Warnings

There are currently no watches in effect.